Карточка аэропорта USNN

Внимание!
Информация на этой странице в стадии наполнения.
Если вы не увидели какой-то информации, или заметили неточность - пожалуйста сообщите нам!
Спасибо!
Команда RU-STAFF
Название аэропортаНижневартовск
Название аэропорта (англ.)Nizhnevartovsk
Превышение177 ft. (53.9 m.)
Координаты60°57', 76°28.998'
Высота перехода800m
Эшелон переходаQFE>=756mm:FL040; QFE<756=>729:FL050; QFE<729:FL060
Коды ответчика5630-5633
Зона ОрВДТюмень РПИ (USTV)
Данные METARUSNN 250300Z 04004MPS 8000 -DZ OVC003 13/13 Q0999 R03/290352 NOSIG RMK QFE745
Проноз погоды (TAF)USNN 250218Z 2502/2603 04005G11MPS 4000 -RA BR OVC005 TEMPO 2502/2506 VRB18MPS 1000 TSRA SQ BKN002 BKN010CB BECMG 2506/2507 FEW005 BKN010 BECMG 2509/2510 9999 NSW BKN016CB BECMG 2512/2514 26003G08MPS
NOTAMshow/hide NOTAM
AWOS   TABLE

Информация о ВПП

ВПП Длина ВПП (м.) Покрытие Курс ВПП Частота ILS
213200Асфальтобетон206111.9
033200Асфальтобетон26110.5

Диспетчерские позиции

Позывной Наименование органа УВД Частота
USNN_APPНижневартовск - Круг120.400
USNN_TWRНижневартовск - Вышка118.100



Спутниковое изображение